createdAt,value
2023-01-23T00:02:32.528Z,65.90
2023-01-23T00:07:36.094Z,66.10
2023-01-23T00:12:43.334Z,66.30
2023-01-23T00:17:48.430Z,66.60
2023-01-23T00:22:53.399Z,66.70
2023-01-23T00:27:58.422Z,66.50
2023-01-23T00:33:02.175Z,66.00
2023-01-23T00:38:05.972Z,65.80
2023-01-23T00:43:10.997Z,65.70
2023-01-23T00:48:14.674Z,65.60
2023-01-23T00:53:18.367Z,65.50
2023-01-23T00:58:23.743Z,65.50
2023-01-23T01:03:27.393Z,65.50
2023-01-23T01:08:32.089Z,65.60
2023-01-23T01:13:37.540Z,65.80
2023-01-23T01:18:41.287Z,66.00
2023-01-23T01:23:45.229Z,66.00
2023-01-23T01:28:51.037Z,66.20
2023-01-23T01:33:54.656Z,66.30
2023-01-23T01:38:58.246Z,66.50
2023-01-23T01:44:03.641Z,66.80
2023-01-23T01:49:11.805Z,66.40
2023-01-23T01:54:28.311Z,66.10
2023-01-23T01:59:38.346Z,65.80
2023-01-23T02:04:48.752Z,65.80
2023-01-23T02:09:53.373Z,65.70
2023-01-23T02:14:58.908Z,65.90
2023-01-23T02:20:13.508Z,65.80
2023-01-23T02:25:28.203Z,65.80
2023-01-23T02:30:33.328Z,65.70
2023-01-23T02:35:37.984Z,65.60
2023-01-23T02:40:46.126Z,65.80
2023-01-23T02:45:56.916Z,65.80
2023-01-23T02:51:01.446Z,66.00
2023-01-23T02:56:08.233Z,66.00
2023-01-23T03:01:13.687Z,66.00
2023-01-23T03:06:17.335Z,66.10
2023-01-23T03:11:26.098Z,66.00
2023-01-23T03:16:31.447Z,66.10
2023-01-23T03:21:36.216Z,65.90
2023-01-23T03:26:40.649Z,65.80
2023-01-23T03:31:46.789Z,65.60
2023-01-23T03:36:50.952Z,65.70
2023-01-23T03:41:55.339Z,65.70
2023-01-23T03:47:05.079Z,65.60
2023-01-23T03:52:08.704Z,65.70
2023-01-23T03:57:12.901Z,65.60
2023-01-23T04:02:38.081Z,65.80
2023-01-23T04:07:41.801Z,65.90
2023-01-23T04:12:45.673Z,65.90
2023-01-23T04:17:51.732Z,65.90
2023-01-23T04:22:56.898Z,65.90
2023-01-23T04:28:00.583Z,65.90
2023-01-23T04:33:06.112Z,65.80
2023-01-23T04:38:11.142Z,65.80
2023-01-23T04:43:15.176Z,65.80
2023-01-23T04:48:25.479Z,65.80
2023-01-23T04:53:30.382Z,66.00
2023-01-23T04:58:37.401Z,65.90
2023-01-23T05:03:43.724Z,65.80
2023-01-23T05:08:47.781Z,65.70
2023-01-23T05:13:58.922Z,66.60
2023-01-23T05:19:04.477Z,65.70
2023-01-23T05:24:10.697Z,65.80
2023-01-23T05:29:14.743Z,65.90
2023-01-23T05:34:30.120Z,65.90
2023-01-23T05:39:35.760Z,65.90
2023-01-23T05:44:40.218Z,66.00
2023-01-23T05:49:54.451Z,66.20
2023-01-23T05:55:02.478Z,66.30
2023-01-23T06:00:11.019Z,66.40
2023-01-23T06:05:54.190Z,66.60
2023-01-23T06:10:59.801Z,66.80
2023-01-23T06:16:04.323Z,66.80
2023-01-23T06:21:09.439Z,66.90
2023-01-23T06:26:16.056Z,66.90
2023-01-23T06:31:21.165Z,67.10
2023-01-23T06:36:31.639Z,67.20
2023-01-23T06:41:36.089Z,66.50
2023-01-23T06:46:42.066Z,66.30
2023-01-23T06:51:47.212Z,65.90
2023-01-23T06:56:51.688Z,65.80
2023-01-23T07:01:56.438Z,65.90
2023-01-23T07:07:03.653Z,65.90
2023-01-23T07:12:08.070Z,65.90
2023-01-23T07:17:12.201Z,65.70
2023-01-23T07:22:20.926Z,65.80
2023-01-23T07:27:24.574Z,65.80
2023-01-23T07:32:28.130Z,65.90
2023-01-23T08:10:33.055Z,66.80
2023-01-23T08:15:38.355Z,66.80
2023-01-23T08:20:41.886Z,66.90
2023-01-23T08:26:07.382Z,67.20
2023-01-23T08:31:14.488Z,67.50
2023-01-23T08:36:18.256Z,67.70
2023-01-23T08:41:24.404Z,67.90
2023-01-23T08:46:28.509Z,68.20
2023-01-23T08:51:32.911Z,68.40
2023-01-23T08:56:38.156Z,68.40
2023-01-23T09:01:41.876Z,68.50
2023-01-23T09:06:45.726Z,68.50
2023-01-23T09:11:50.961Z,69.00
2023-01-23T09:16:54.985Z,69.00
2023-01-23T09:21:58.773Z,69.30
2023-01-23T09:27:04.259Z,69.20
2023-01-23T09:32:08.270Z,69.40
2023-01-23T09:37:12.048Z,69.30
2023-01-23T09:42:24.861Z,68.80
2023-01-23T09:47:36.198Z,68.40
2023-01-23T09:52:48.913Z,68.80
2023-01-23T09:57:58.049Z,68.90
2023-01-23T10:03:07.287Z,69.10
2023-01-23T10:08:27.034Z,69.30
2023-01-23T10:13:59.913Z,69.30
2023-01-23T10:19:20.497Z,69.30
2023-01-23T10:24:45.700Z,68.90
2023-01-23T10:29:59.033Z,69.00
2023-01-23T10:35:08.590Z,69.20
2023-01-23T10:40:17.509Z,69.30
2023-01-23T10:45:24.733Z,69.30
2023-01-23T10:50:39.741Z,69.30
2023-01-23T10:55:47.551Z,69.40
2023-01-23T11:00:53.061Z,69.50
2023-01-23T11:06:02.749Z,69.50
2023-01-23T11:11:27.934Z,69.50
2023-01-23T11:16:33.422Z,69.40
2023-01-23T11:21:52.567Z,69.30
2023-01-23T11:27:01.759Z,69.30
2023-01-23T11:32:14.932Z,69.50
2023-01-23T11:37:25.225Z,69.40
2023-01-23T11:42:30.645Z,70.30
2023-01-23T11:47:59.074Z,68.80
2023-01-23T11:53:19.561Z,66.70
2023-01-23T11:58:57.531Z,65.90
2023-01-23T12:05:17.525Z,65.70
2023-01-23T12:10:30.177Z,65.20
2023-01-23T12:15:46.578Z,63.90
2023-01-23T12:21:02.808Z,63.20
2023-01-23T12:26:15.634Z,64.50
2023-01-23T12:31:41.186Z,66.90
2023-01-23T12:37:30.471Z,67.20
2023-01-23T12:42:45.333Z,67.90
2023-01-23T12:48:00.855Z,68.20
2023-01-23T12:53:13.714Z,68.80
2023-01-23T12:58:20.249Z,68.60
2023-01-23T13:04:05.222Z,68.60
2023-01-23T13:09:24.839Z,68.60
2023-01-23T13:20:49.533Z,68.80
2023-01-23T13:26:32.281Z,68.70
2023-01-23T13:31:47.298Z,68.60
2023-01-23T13:36:53.346Z,68.60
2023-01-23T13:42:47.342Z,67.70
2023-01-23T14:20:55.937Z,68.70
2023-01-23T14:25:59.909Z,68.80
2023-01-23T14:31:08.293Z,68.90
2023-01-23T14:36:19.344Z,69.00
2023-01-23T14:41:31.747Z,68.90
2023-01-23T14:46:40.185Z,69.00
2023-01-23T14:51:58.440Z,69.00
2023-01-23T14:57:04.602Z,69.00
2023-01-23T15:02:35.294Z,69.10
2023-01-23T15:07:47.237Z,69.20
2023-01-23T15:12:59.245Z,69.20
2023-01-23T15:18:07.267Z,69.20
2023-01-23T15:23:31.553Z,69.30
2023-01-23T15:28:43.081Z,69.30
2023-01-23T15:33:47.797Z,69.30
2023-01-23T15:38:53.313Z,69.40
2023-01-23T15:43:57.292Z,69.40
2023-01-23T15:49:00.917Z,69.40
2023-01-23T15:54:08.231Z,69.50
2023-01-23T15:59:19.207Z,69.60
2023-01-23T16:04:22.900Z,69.50
2023-01-23T16:09:35.299Z,69.50
2023-01-23T16:14:39.039Z,69.50
2023-01-23T16:19:42.997Z,69.60
2023-01-23T16:24:48.286Z,70.40
2023-01-23T16:29:51.957Z,69.60
2023-01-23T16:34:55.684Z,69.60
2023-01-23T16:40:02.006Z,69.60
2023-01-23T16:45:17.355Z,69.70
2023-01-23T16:50:31.402Z,69.70
2023-01-23T16:55:40.371Z,69.70
2023-01-23T17:00:44.588Z,69.70
2023-01-23T17:05:48.255Z,69.70
2023-01-23T17:10:58.681Z,69.80
2023-01-23T17:16:07.394Z,69.80
2023-01-23T17:21:21.872Z,69.90
2023-01-23T17:26:27.424Z,69.80
2023-01-23T17:31:32.695Z,69.80
2023-01-23T17:36:37.200Z,69.90
2023-01-23T17:41:42.219Z,69.90
2023-01-23T17:46:47.289Z,70.00
2023-01-23T17:51:50.887Z,70.00
2023-01-23T17:56:56.198Z,70.00
2023-01-23T18:02:00.473Z,70.00
2023-01-23T18:07:04.149Z,70.00
2023-01-23T18:12:16.604Z,70.00
2023-01-23T18:17:34.246Z,69.90
2023-01-23T18:22:38.859Z,68.70
2023-01-23T18:27:44.645Z,67.10
2023-01-23T18:33:18.881Z,66.30
2023-01-23T18:38:36.037Z,65.70
2023-01-23T18:43:45.736Z,65.00
2023-01-23T18:48:50.903Z,64.50
2023-01-23T18:54:07.456Z,64.10
2023-01-23T18:59:25.165Z,63.80
2023-01-23T19:04:38.707Z,64.70
2023-01-23T19:09:46.539Z,64.10
2023-01-23T19:15:19.244Z,64.40
2023-01-23T19:20:32.930Z,64.60
2023-01-23T19:25:37.289Z,64.90
2023-01-23T19:30:45.394Z,65.10
2023-01-23T19:35:55.002Z,65.20
2023-01-23T19:40:58.716Z,65.40
2023-01-23T19:46:03.924Z,65.50
2023-01-23T19:51:07.742Z,65.70
2023-01-23T19:56:13.417Z,65.80
2023-01-23T20:01:28.976Z,66.20
2023-01-23T20:06:33.293Z,65.70
2023-01-23T20:11:37.050Z,64.40
2023-01-23T20:16:43.257Z,63.60
2023-01-23T20:21:48.615Z,63.70
2023-01-23T20:26:52.345Z,63.90
2023-01-23T20:31:57.462Z,64.20
2023-01-23T20:37:01.185Z,64.20
2023-01-23T20:42:05.225Z,64.20
2023-01-23T20:47:10.447Z,64.00
2023-01-23T20:52:31.614Z,64.00
2023-01-23T20:57:49.153Z,64.10
2023-01-23T21:02:54.184Z,64.10
2023-01-23T21:07:58.001Z,64.10
2023-01-23T21:13:01.724Z,64.00
2023-01-23T21:18:07.064Z,64.10
2023-01-23T21:23:10.816Z,64.30
2023-01-23T21:28:14.448Z,64.30
2023-01-23T21:33:19.539Z,64.70
2023-01-23T21:38:23.446Z,64.80
2023-01-23T21:43:27.062Z,66.10
2023-01-23T21:48:33.928Z,65.90
2023-01-23T21:53:39.704Z,66.60
2023-01-23T21:58:43.705Z,67.10
2023-01-23T22:03:48.845Z,67.10
2023-01-23T22:08:52.478Z,66.80
2023-01-23T22:13:56.770Z,66.20
2023-01-23T22:19:01.854Z,65.70
2023-01-23T22:24:06.513Z,65.40
2023-01-23T22:29:10.244Z,65.40
2023-01-23T22:34:15.397Z,65.40
2023-01-23T22:39:19.999Z,65.50
2023-01-23T22:44:23.748Z,65.50
2023-01-23T22:49:28.854Z,65.50
2023-01-23T22:54:32.605Z,65.60
2023-01-23T22:59:36.370Z,65.50
2023-01-23T23:04:41.447Z,65.70
2023-01-23T23:09:45.685Z,65.90
2023-01-23T23:14:49.266Z,66.70
2023-01-23T23:19:54.302Z,67.00
2023-01-23T23:24:57.909Z,66.90
2023-01-23T23:30:01.530Z,66.90
2023-01-23T23:35:08.706Z,66.90
2023-01-23T23:40:13.705Z,66.80
2023-01-23T23:45:17.454Z,67.00
2023-01-23T23:50:23.039Z,67.70
2023-01-23T23:55:26.883Z,67.10
